sensor_id;sensor_type;location;lat;lon;timestamp;P1;durP1;ratioP1;P2;durP2;ratioP2
17052;SDS011;8643;48.824;11.422;2022-11-20T00:01:38;27.83;;;13.30;;
17052;SDS011;8643;48.824;11.422;2022-11-20T00:04:07;30.00;;;13.80;;
17052;SDS011;8643;48.824;11.422;2022-11-20T00:06:38;27.67;;;13.13;;
17052;SDS011;8643;48.824;11.422;2022-11-20T00:09:06;30.87;;;13.80;;
17052;SDS011;8643;48.824;11.422;2022-11-20T00:11:37;26.73;;;12.67;;
17052;SDS011;8643;48.824;11.422;2022-11-20T00:14:06;26.60;;;12.37;;
17052;SDS011;8643;48.824;11.422;2022-11-20T00:16:37;28.83;;;12.13;;
17052;SDS011;8643;48.824;11.422;2022-11-20T00:19:06;27.23;;;13.03;;
17052;SDS011;8643;48.824;11.422;2022-11-20T00:21:34;27.37;;;12.73;;
17052;SDS011;8643;48.824;11.422;2022-11-20T00:24:03;30.93;;;13.97;;
17052;SDS011;8643;48.824;11.422;2022-11-20T00:26:32;27.43;;;12.33;;
17052;SDS011;8643;48.824;11.422;2022-11-20T00:29:01;31.17;;;13.37;;
17052;SDS011;8643;48.824;11.422;2022-11-20T00:31:30;32.10;;;13.43;;
17052;SDS011;8643;48.824;11.422;2022-11-20T00:34:00;29.70;;;13.97;;
17052;SDS011;8643;48.824;11.422;2022-11-20T00:36:31;26.50;;;12.70;;
17052;SDS011;8643;48.824;11.422;2022-11-20T00:39:01;27.97;;;12.30;;
17052;SDS011;8643;48.824;11.422;2022-11-20T00:41:30;25.73;;;11.83;;
17052;SDS011;8643;48.824;11.422;2022-11-20T00:43:58;24.97;;;11.93;;
17052;SDS011;8643;48.824;11.422;2022-11-20T00:46:28;28.87;;;12.57;;
17052;SDS011;8643;48.824;11.422;2022-11-20T00:48:57;24.87;;;11.20;;
17052;SDS011;8643;48.824;11.422;2022-11-20T00:51:27;26.50;;;12.50;;
17052;SDS011;8643;48.824;11.422;2022-11-20T00:53:56;22.40;;;11.93;;
17052;SDS011;8643;48.824;11.422;2022-11-20T00:56:26;24.97;;;12.83;;
17052;SDS011;8643;48.824;11.422;2022-11-20T00:58:54;27.70;;;13.60;;
17052;SDS011;8643;48.824;11.422;2022-11-20T01:01:23;26.47;;;12.60;;
17052;SDS011;8643;48.824;11.422;2022-11-20T01:03:56;25.57;;;12.47;;
17052;SDS011;8643;48.824;11.422;2022-11-20T01:06:28;27.03;;;12.50;;
17052;SDS011;8643;48.824;11.422;2022-11-20T01:08:59;28.70;;;12.73;;
17052;SDS011;8643;48.824;11.422;2022-11-20T01:11:30;24.47;;;11.40;;
17052;SDS011;8643;48.824;11.422;2022-11-20T01:14:02;23.50;;;11.57;;
17052;SDS011;8643;48.824;11.422;2022-11-20T01:16:34;25.43;;;11.70;;
17052;SDS011;8643;48.824;11.422;2022-11-20T01:19:04;22.47;;;11.53;;
17052;SDS011;8643;48.824;11.422;2022-11-20T01:21:44;22.43;;;10.70;;
17052;SDS011;8643;48.824;11.422;2022-11-20T01:24:18;23.27;;;11.37;;
17052;SDS011;8643;48.824;11.422;2022-11-20T01:26:49;30.03;;;12.07;;
17052;SDS011;8643;48.824;11.422;2022-11-20T01:29:19;22.57;;;10.53;;
17052;SDS011;8643;48.824;11.422;2022-11-20T01:31:50;25.53;;;11.93;;
17052;SDS011;8643;48.824;11.422;2022-11-20T01:34:19;27.43;;;12.40;;
17052;SDS011;8643;48.824;11.422;2022-11-20T01:36:51;24.40;;;12.17;;
17052;SDS011;8643;48.824;11.422;2022-11-20T01:39:20;26.30;;;12.67;;
17052;SDS011;8643;48.824;11.422;2022-11-20T01:41:51;27.73;;;12.63;;
17052;SDS011;8643;48.824;11.422;2022-11-20T01:44:42;22.93;;;11.77;;
17052;SDS011;8643;48.824;11.422;2022-11-20T01:47:21;23.90;;;11.57;;
17052;SDS011;8643;48.824;11.422;2022-11-20T01:49:59;27.33;;;12.03;;
17052;SDS011;8643;48.824;11.422;2022-11-20T01:52:39;26.80;;;12.37;;
17052;SDS011;8643;48.824;11.422;2022-11-20T01:55:16;30.17;;;12.37;;
17052;SDS011;8643;48.824;11.422;2022-11-20T01:57:51;25.83;;;12.00;;
17052;SDS011;8643;48.824;11.422;2022-11-20T02:00:20;28.97;;;12.80;;
17052;SDS011;8643;48.824;11.422;2022-11-20T02:02:50;26.80;;;12.83;;
17052;SDS011;8643;48.824;11.422;2022-11-20T02:05:24;25.33;;;12.63;;
17052;SDS011;8643;48.824;11.422;2022-11-20T02:08:01;28.93;;;13.50;;
17052;SDS011;8643;48.824;11.422;2022-11-20T02:10:32;29.40;;;13.33;;
17052;SDS011;8643;48.824;11.422;2022-11-20T02:13:01;26.70;;;12.77;;
17052;SDS011;8643;48.824;11.422;2022-11-20T02:15:48;25.23;;;12.03;;
17052;SDS011;8643;48.824;11.422;2022-11-20T02:18:18;26.83;;;12.10;;
17052;SDS011;8643;48.824;11.422;2022-11-20T02:20:49;27.60;;;12.73;;
17052;SDS011;8643;48.824;11.422;2022-11-20T02:23:26;23.77;;;12.17;;
17052;SDS011;8643;48.824;11.422;2022-11-20T02:26:08;26.43;;;13.87;;
17052;SDS011;8643;48.824;11.422;2022-11-20T02:28:41;31.80;;;14.10;;
17052;SDS011;8643;48.824;11.422;2022-11-20T02:31:10;27.23;;;12.93;;
17052;SDS011;8643;48.824;11.422;2022-11-20T02:33:38;31.77;;;13.90;;
17052;SDS011;8643;48.824;11.422;2022-11-20T02:36:07;30.80;;;13.90;;
17052;SDS011;8643;48.824;11.422;2022-11-20T02:38:41;24.97;;;12.10;;
17052;SDS011;8643;48.824;11.422;2022-11-20T02:41:12;27.57;;;13.03;;
17052;SDS011;8643;48.824;11.422;2022-11-20T02:43:40;27.60;;;12.87;;
17052;SDS011;8643;48.824;11.422;2022-11-20T02:46:09;33.27;;;14.03;;
17052;SDS011;8643;48.824;11.422;2022-11-20T02:48:38;30.67;;;13.93;;
17052;SDS011;8643;48.824;11.422;2022-11-20T02:51:06;31.87;;;13.60;;
17052;SDS011;8643;48.824;11.422;2022-11-20T02:53:35;31.27;;;14.37;;
17052;SDS011;8643;48.824;11.422;2022-11-20T02:56:03;29.97;;;13.53;;
17052;SDS011;8643;48.824;11.422;2022-11-20T02:58:34;31.50;;;14.07;;
17052;SDS011;8643;48.824;11.422;2022-11-20T03:01:03;32.73;;;14.53;;
17052;SDS011;8643;48.824;11.422;2022-11-20T03:03:31;36.87;;;14.47;;
17052;SDS011;8643;48.824;11.422;2022-11-20T03:06:00;30.33;;;13.77;;
17052;SDS011;8643;48.824;11.422;2022-11-20T03:08:28;37.33;;;15.10;;
17052;SDS011;8643;48.824;11.422;2022-11-20T03:11:01;33.43;;;15.50;;
17052;SDS011;8643;48.824;11.422;2022-11-20T03:13:32;33.80;;;15.03;;
17052;SDS011;8643;48.824;11.422;2022-11-20T03:16:06;39.77;;;16.20;;
17052;SDS011;8643;48.824;11.422;2022-11-20T03:18:37;32.90;;;14.87;;
17052;SDS011;8643;48.824;11.422;2022-11-20T03:21:06;39.07;;;16.03;;
17052;SDS011;8643;48.824;11.422;2022-11-20T03:23:37;40.33;;;15.73;;
17052;SDS011;8643;48.824;11.422;2022-11-20T03:26:07;34.37;;;15.30;;
17052;SDS011;8643;48.824;11.422;2022-11-20T03:28:39;36.63;;;16.27;;
17052;SDS011;8643;48.824;11.422;2022-11-20T03:31:08;39.40;;;17.10;;
17052;SDS011;8643;48.824;11.422;2022-11-20T03:33:39;43.30;;;17.27;;
17052;SDS011;8643;48.824;11.422;2022-11-20T03:36:10;36.13;;;15.37;;
17052;SDS011;8643;48.824;11.422;2022-11-20T03:38:41;41.70;;;16.70;;
17052;SDS011;8643;48.824;11.422;2022-11-20T03:41:10;39.33;;;16.73;;
17052;SDS011;8643;48.824;11.422;2022-11-20T03:43:46;39.07;;;17.17;;
17052;SDS011;8643;48.824;11.422;2022-11-20T03:46:16;36.10;;;16.03;;
17052;SDS011;8643;48.824;11.422;2022-11-20T03:48:45;40.13;;;16.80;;
17052;SDS011;8643;48.824;11.422;2022-11-20T03:51:18;38.83;;;16.07;;
17052;SDS011;8643;48.824;11.422;2022-11-20T03:53:49;40.10;;;17.00;;
17052;SDS011;8643;48.824;11.422;2022-11-20T03:56:20;41.30;;;17.43;;
17052;SDS011;8643;48.824;11.422;2022-11-20T03:58:53;39.77;;;17.07;;
17052;SDS011;8643;48.824;11.422;2022-11-20T04:01:22;38.53;;;16.20;;
17052;SDS011;8643;48.824;11.422;2022-11-20T04:03:52;42.90;;;17.10;;
17052;SDS011;8643;48.824;11.422;2022-11-20T04:06:23;38.77;;;16.73;;
17052;SDS011;8643;48.824;11.422;2022-11-20T04:08:54;39.50;;;16.83;;
17052;SDS011;8643;48.824;11.422;2022-11-20T04:11:25;42.37;;;16.47;;
17052;SDS011;8643;48.824;11.422;2022-11-20T04:13:57;39.70;;;16.13;;
17052;SDS011;8643;48.824;11.422;2022-11-20T04:16:29;33.30;;;14.93;;
17052;SDS011;8643;48.824;11.422;2022-11-20T04:19:01;34.63;;;16.37;;
17052;SDS011;8643;48.824;11.422;2022-11-20T04:21:32;39.40;;;16.47;;
17052;SDS011;8643;48.824;11.422;2022-11-20T04:24:01;39.03;;;16.53;;
17052;SDS011;8643;48.824;11.422;2022-11-20T04:26:30;35.90;;;15.73;;
17052;SDS011;8643;48.824;11.422;2022-11-20T04:29:00;32.83;;;15.23;;
17052;SDS011;8643;48.824;11.422;2022-11-20T04:31:29;39.80;;;17.20;;
17052;SDS011;8643;48.824;11.422;2022-11-20T04:34:00;30.50;;;14.37;;
17052;SDS011;8643;48.824;11.422;2022-11-20T04:36:31;35.00;;;15.40;;
17052;SDS011;8643;48.824;11.422;2022-11-20T04:39:01;34.90;;;15.23;;
17052;SDS011;8643;48.824;11.422;2022-11-20T04:41:33;33.33;;;15.40;;
17052;SDS011;8643;48.824;11.422;2022-11-20T04:44:05;40.27;;;16.37;;
17052;SDS011;8643;48.824;11.422;2022-11-20T04:46:34;37.50;;;16.87;;
17052;SDS011;8643;48.824;11.422;2022-11-20T04:49:05;35.83;;;16.20;;
17052;SDS011;8643;48.824;11.422;2022-11-20T04:51:34;37.83;;;16.73;;
17052;SDS011;8643;48.824;11.422;2022-11-20T04:54:03;33.40;;;15.27;;
17052;SDS011;8643;48.824;11.422;2022-11-20T04:56:31;37.90;;;16.13;;
17052;SDS011;8643;48.824;11.422;2022-11-20T04:59:00;37.73;;;16.20;;
17052;SDS011;8643;48.824;11.422;2022-11-20T05:01:30;35.93;;;15.63;;
17052;SDS011;8643;48.824;11.422;2022-11-20T05:03:59;39.03;;;16.90;;
17052;SDS011;8643;48.824;11.422;2022-11-20T05:06:27;40.33;;;16.90;;
17052;SDS011;8643;48.824;11.422;2022-11-20T05:08:56;40.87;;;16.13;;
17052;SDS011;8643;48.824;11.422;2022-11-20T05:11:24;34.33;;;15.23;;
17052;SDS011;8643;48.824;11.422;2022-11-20T05:13:55;33.43;;;14.17;;
17052;SDS011;8643;48.824;11.422;2022-11-20T05:16:26;31.77;;;14.97;;
17052;SDS011;8643;48.824;11.422;2022-11-20T05:18:56;32.83;;;14.40;;
17052;SDS011;8643;48.824;11.422;2022-11-20T05:21:25;30.70;;;14.83;;
17052;SDS011;8643;48.824;11.422;2022-11-20T05:23:53;33.43;;;14.77;;
17052;SDS011;8643;48.824;11.422;2022-11-20T05:26:22;28.37;;;13.77;;
17052;SDS011;8643;48.824;11.422;2022-11-20T05:28:51;21.70;;;10.10;;
17052;SDS011;8643;48.824;11.422;2022-11-20T05:31:20;18.00;;;9.17;;
17052;SDS011;8643;48.824;11.422;2022-11-20T05:33:54;14.10;;;8.03;;
17052;SDS011;8643;48.824;11.422;2022-11-20T05:36:25;18.60;;;8.10;;
17052;SDS011;8643;48.824;11.422;2022-11-20T05:38:53;11.37;;;6.83;;
17052;SDS011;8643;48.824;11.422;2022-11-20T05:41:26;11.93;;;7.20;;
17052;SDS011;8643;48.824;11.422;2022-11-20T05:43:55;11.57;;;6.43;;
17052;SDS011;8643;48.824;11.422;2022-11-20T05:46:25;12.73;;;7.03;;
17052;SDS011;8643;48.824;11.422;2022-11-20T05:48:56;13.87;;;6.30;;
17052;SDS011;8643;48.824;11.422;2022-11-20T05:51:25;11.10;;;6.73;;
17052;SDS011;8643;48.824;11.422;2022-11-20T05:53:55;13.63;;;6.33;;
17052;SDS011;8643;48.824;11.422;2022-11-20T05:56:25;11.70;;;5.90;;
17052;SDS011;8643;48.824;11.422;2022-11-20T05:58:53;13.63;;;6.67;;
17052;SDS011;8643;48.824;11.422;2022-11-20T06:01:23;10.93;;;6.37;;
17052;SDS011;8643;48.824;11.422;2022-11-20T06:03:52;10.27;;;6.03;;
17052;SDS011;8643;48.824;11.422;2022-11-20T06:06:23;12.30;;;6.20;;
17052;SDS011;8643;48.824;11.422;2022-11-20T06:08:52;10.83;;;6.27;;
17052;SDS011;8643;48.824;11.422;2022-11-20T06:11:22;10.13;;;5.90;;
17052;SDS011;8643;48.824;11.422;2022-11-20T06:13:50;10.93;;;6.03;;
17052;SDS011;8643;48.824;11.422;2022-11-20T06:16:19;11.70;;;6.20;;
17052;SDS011;8643;48.824;11.422;2022-11-20T06:18:48;9.73;;;5.73;;
17052;SDS011;8643;48.824;11.422;2022-11-20T06:21:17;10.77;;;6.33;;
17052;SDS011;8643;48.824;11.422;2022-11-20T06:23:49;10.13;;;5.80;;
17052;SDS011;8643;48.824;11.422;2022-11-20T06:26:20;9.73;;;6.00;;
17052;SDS011;8643;48.824;11.422;2022-11-20T06:28:51;11.13;;;6.30;;
17052;SDS011;8643;48.824;11.422;2022-11-20T06:31:23;8.93;;;5.73;;
17052;SDS011;8643;48.824;11.422;2022-11-20T06:33:53;9.27;;;5.60;;
17052;SDS011;8643;48.824;11.422;2022-11-20T06:36:22;8.83;;;5.43;;
17052;SDS011;8643;48.824;11.422;2022-11-20T06:38:53;9.73;;;5.63;;
17052;SDS011;8643;48.824;11.422;2022-11-20T06:41:21;8.67;;;5.67;;
17052;SDS011;8643;48.824;11.422;2022-11-20T06:43:50;9.10;;;5.37;;
17052;SDS011;8643;48.824;11.422;2022-11-20T06:46:19;8.37;;;5.23;;
17052;SDS011;8643;48.824;11.422;2022-11-20T06:48:47;9.73;;;5.90;;
17052;SDS011;8643;48.824;11.422;2022-11-20T06:51:17;10.97;;;5.77;;
17052;SDS011;8643;48.824;11.422;2022-11-20T06:53:46;10.70;;;5.87;;
17052;SDS011;8643;48.824;11.422;2022-11-20T06:56:16;10.30;;;6.20;;
17052;SDS011;8643;48.824;11.422;2022-11-20T06:58:44;11.63;;;6.10;;
17052;SDS011;8643;48.824;11.422;2022-11-20T07:01:13;8.53;;;6.07;;
17052;SDS011;8643;48.824;11.422;2022-11-20T07:03:43;10.63;;;5.73;;
17052;SDS011;8643;48.824;11.422;2022-11-20T07:06:18;9.20;;;5.27;;
17052;SDS011;8643;48.824;11.422;2022-11-20T07:08:46;9.10;;;5.70;;
17052;SDS011;8643;48.824;11.422;2022-11-20T07:11:18;13.93;;;6.70;;
17052;SDS011;8643;48.824;11.422;2022-11-20T07:13:47;11.30;;;6.20;;
17052;SDS011;8643;48.824;11.422;2022-11-20T07:16:15;10.77;;;5.97;;
17052;SDS011;8643;48.824;11.422;2022-11-20T07:18:44;11.93;;;6.10;;
17052;SDS011;8643;48.824;11.422;2022-11-20T07:21:16;8.60;;;5.57;;
17052;SDS011;8643;48.824;11.422;2022-11-20T07:23:44;12.27;;;7.67;;
17052;SDS011;8643;48.824;11.422;2022-11-20T07:26:13;12.17;;;6.70;;
17052;SDS011;8643;48.824;11.422;2022-11-20T07:28:44;10.57;;;6.03;;
17052;SDS011;8643;48.824;11.422;2022-11-20T07:31:13;10.10;;;5.37;;
17052;SDS011;8643;48.824;11.422;2022-11-20T07:33:45;9.37;;;5.00;;
17052;SDS011;8643;48.824;11.422;2022-11-20T07:36:13;9.57;;;5.90;;
17052;SDS011;8643;48.824;11.422;2022-11-20T07:38:42;11.17;;;5.83;;
17052;SDS011;8643;48.824;11.422;2022-11-20T07:41:10;14.57;;;6.80;;
17052;SDS011;8643;48.824;11.422;2022-11-20T07:43:38;14.43;;;8.23;;
17052;SDS011;8643;48.824;11.422;2022-11-20T07:46:09;17.40;;;10.27;;
17052;SDS011;8643;48.824;11.422;2022-11-20T07:48:37;23.07;;;13.33;;
17052;SDS011;8643;48.824;11.422;2022-11-20T07:51:07;9.87;;;5.63;;
17052;SDS011;8643;48.824;11.422;2022-11-20T07:53:35;13.27;;;7.70;;
17052;SDS011;8643;48.824;11.422;2022-11-20T07:56:04;11.03;;;6.57;;
17052;SDS011;8643;48.824;11.422;2022-11-20T07:58:33;9.50;;;5.20;;
17052;SDS011;8643;48.824;11.422;2022-11-20T08:01:04;11.23;;;6.50;;
17052;SDS011;8643;48.824;11.422;2022-11-20T08:03:35;9.87;;;4.83;;
17052;SDS011;8643;48.824;11.422;2022-11-20T08:06:05;8.57;;;5.23;;
17052;SDS011;8643;48.824;11.422;2022-11-20T08:08:35;7.00;;;4.80;;
17052;SDS011;8643;48.824;11.422;2022-11-20T08:11:08;6.90;;;4.57;;
17052;SDS011;8643;48.824;11.422;2022-11-20T08:13:54;8.87;;;5.20;;
17052;SDS011;8643;48.824;11.422;2022-11-20T08:16:42;8.60;;;5.13;;
17052;SDS011;8643;48.824;11.422;2022-11-20T08:19:14;7.33;;;4.50;;
17052;SDS011;8643;48.824;11.422;2022-11-20T08:21:46;8.10;;;5.17;;
17052;SDS011;8643;48.824;11.422;2022-11-20T08:24:15;8.97;;;5.30;;
17052;SDS011;8643;48.824;11.422;2022-11-20T08:26:45;7.83;;;4.70;;
17052;SDS011;8643;48.824;11.422;2022-11-20T08:29:13;9.40;;;5.73;;
17052;SDS011;8643;48.824;11.422;2022-11-20T08:31:42;8.40;;;4.83;;
17052;SDS011;8643;48.824;11.422;2022-11-20T08:34:11;9.33;;;5.30;;
17052;SDS011;8643;48.824;11.422;2022-11-20T08:36:44;10.20;;;5.37;;
17052;SDS011;8643;48.824;11.422;2022-11-20T08:39:13;9.07;;;5.17;;
17052;SDS011;8643;48.824;11.422;2022-11-20T08:41:42;9.57;;;5.20;;
17052;SDS011;8643;48.824;11.422;2022-11-20T08:44:10;9.47;;;5.30;;
17052;SDS011;8643;48.824;11.422;2022-11-20T08:46:39;8.53;;;5.50;;
17052;SDS011;8643;48.824;11.422;2022-11-20T08:49:10;7.93;;;5.23;;
17052;SDS011;8643;48.824;11.422;2022-11-20T08:51:44;9.07;;;5.30;;
17052;SDS011;8643;48.824;11.422;2022-11-20T08:54:14;10.33;;;6.33;;
17052;SDS011;8643;48.824;11.422;2022-11-20T08:56:45;7.90;;;4.73;;
17052;SDS011;8643;48.824;11.422;2022-11-20T08:59:14;7.97;;;5.43;;
17052;SDS011;8643;48.824;11.422;2022-11-20T09:02:02;8.10;;;5.03;;
17052;SDS011;8643;48.824;11.422;2022-11-20T09:04:32;7.80;;;5.00;;
17052;SDS011;8643;48.824;11.422;2022-11-20T09:07:00;6.00;;;4.30;;
17052;SDS011;8643;48.824;11.422;2022-11-20T09:09:29;6.93;;;4.77;;
17052;SDS011;8643;48.824;11.422;2022-11-20T09:11:58;9.27;;;4.63;;
17052;SDS011;8643;48.824;11.422;2022-11-20T09:14:27;9.00;;;5.27;;
17052;SDS011;8643;48.824;11.422;2022-11-20T09:16:56;6.57;;;4.83;;
17052;SDS011;8643;48.824;11.422;2022-11-20T09:19:25;7.50;;;5.60;;
17052;SDS011;8643;48.824;11.422;2022-11-20T09:22:02;8.47;;;4.93;;
17052;SDS011;8643;48.824;11.422;2022-11-20T09:24:31;7.47;;;4.70;;
17052;SDS011;8643;48.824;11.422;2022-11-20T09:27:01;9.00;;;5.10;;
17052;SDS011;8643;48.824;11.422;2022-11-20T09:29:31;7.53;;;4.97;;
17052;SDS011;8643;48.824;11.422;2022-11-20T09:31:59;6.77;;;4.60;;
17052;SDS011;8643;48.824;11.422;2022-11-20T09:34:27;7.77;;;5.27;;
17052;SDS011;8643;48.824;11.422;2022-11-20T09:36:56;8.10;;;5.27;;
17052;SDS011;8643;48.824;11.422;2022-11-20T09:39:31;22.77;;;9.77;;
17052;SDS011;8643;48.824;11.422;2022-11-20T09:42:13;33.17;;;12.70;;
17052;SDS011;8643;48.824;11.422;2022-11-20T09:45:15;22.93;;;12.30;;
17052;SDS011;8643;48.824;11.422;2022-11-20T09:47:59;7.00;;;4.97;;
17052;SDS011;8643;48.824;11.422;2022-11-20T09:50:46;8.83;;;5.30;;
17052;SDS011;8643;48.824;11.422;2022-11-20T09:53:26;8.97;;;5.40;;
17052;SDS011;8643;48.824;11.422;2022-11-20T09:56:13;8.03;;;5.20;;
17052;SDS011;8643;48.824;11.422;2022-11-20T09:58:49;8.50;;;5.50;;
17052;SDS011;8643;48.824;11.422;2022-11-20T10:01:23;7.93;;;5.07;;
17052;SDS011;8643;48.824;11.422;2022-11-20T10:04:04;9.40;;;4.90;;
17052;SDS011;8643;48.824;11.422;2022-11-20T10:06:41;9.73;;;5.20;;
17052;SDS011;8643;48.824;11.422;2022-11-20T10:09:49;7.43;;;4.83;;
17052;SDS011;8643;48.824;11.422;2022-11-20T10:12:25;8.73;;;5.17;;
17052;SDS011;8643;48.824;11.422;2022-11-20T10:15:10;8.17;;;4.47;;
17052;SDS011;8643;48.824;11.422;2022-11-20T10:17:58;6.80;;;4.30;;
17052;SDS011;8643;48.824;11.422;2022-11-20T10:20:45;8.63;;;4.63;;
17052;SDS011;8643;48.824;11.422;2022-11-20T10:23:29;8.90;;;5.57;;
17052;SDS011;8643;48.824;11.422;2022-11-20T10:26:20;9.77;;;4.93;;
17052;SDS011;8643;48.824;11.422;2022-11-20T10:29:07;7.03;;;3.83;;
17052;SDS011;8643;48.824;11.422;2022-11-20T10:31:41;11.33;;;5.80;;
17052;SDS011;8643;48.824;11.422;2022-11-20T10:34:14;7.03;;;4.00;;
17052;SDS011;8643;48.824;11.422;2022-11-20T10:36:52;6.90;;;4.20;;
17052;SDS011;8643;48.824;11.422;2022-11-20T10:39:28;6.90;;;3.80;;
17052;SDS011;8643;48.824;11.422;2022-11-20T10:42:07;17.83;;;8.03;;
17052;SDS011;8643;48.824;11.422;2022-11-20T10:44:45;7.10;;;3.93;;
17052;SDS011;8643;48.824;11.422;2022-11-20T10:47:32;7.17;;;4.17;;
17052;SDS011;8643;48.824;11.422;2022-11-20T10:50:01;6.20;;;4.03;;
17052;SDS011;8643;48.824;11.422;2022-11-20T10:52:38;7.10;;;3.90;;
17052;SDS011;8643;48.824;11.422;2022-11-20T10:55:24;6.63;;;3.37;;
17052;SDS011;8643;48.824;11.422;2022-11-20T10:58:01;5.43;;;3.37;;
17052;SDS011;8643;48.824;11.422;2022-11-20T11:00:39;9.30;;;4.87;;
17052;SDS011;8643;48.824;11.422;2022-11-20T11:03:23;6.27;;;3.67;;
17052;SDS011;8643;48.824;11.422;2022-11-20T11:05:56;6.23;;;3.70;;
17052;SDS011;8643;48.824;11.422;2022-11-20T11:08:36;7.43;;;4.00;;
17052;SDS011;8643;48.824;11.422;2022-11-20T11:11:10;6.70;;;4.20;;
17052;SDS011;8643;48.824;11.422;2022-11-20T11:13:48;5.20;;;3.50;;
17052;SDS011;8643;48.824;11.422;2022-11-20T11:16:21;7.13;;;4.10;;
17052;SDS011;8643;48.824;11.422;2022-11-20T11:19:02;5.37;;;3.77;;
17052;SDS011;8643;48.824;11.422;2022-11-20T11:21:32;6.83;;;4.13;;
17052;SDS011;8643;48.824;11.422;2022-11-20T11:24:03;7.40;;;4.70;;
17052;SDS011;8643;48.824;11.422;2022-11-20T11:26:53;6.50;;;3.97;;
17052;SDS011;8643;48.824;11.422;2022-11-20T11:29:25;9.00;;;4.40;;
17052;SDS011;8643;48.824;11.422;2022-11-20T11:32:04;5.93;;;3.90;;
17052;SDS011;8643;48.824;11.422;2022-11-20T11:34:34;5.30;;;3.67;;
17052;SDS011;8643;48.824;11.422;2022-11-20T11:37:03;6.93;;;4.10;;
17052;SDS011;8643;48.824;11.422;2022-11-20T11:39:40;12.03;;;5.57;;
17052;SDS011;8643;48.824;11.422;2022-11-20T11:42:20;9.90;;;4.57;;
17052;SDS011;8643;48.824;11.422;2022-11-20T11:44:49;9.33;;;4.83;;
17052;SDS011;8643;48.824;11.422;2022-11-20T11:47:35;9.00;;;4.77;;
17052;SDS011;8643;48.824;11.422;2022-11-20T11:50:14;7.43;;;4.73;;
17052;SDS011;8643;48.824;11.422;2022-11-20T11:52:50;6.47;;;4.33;;
17052;SDS011;8643;48.824;11.422;2022-11-20T11:55:28;6.63;;;4.60;;
17052;SDS011;8643;48.824;11.422;2022-11-20T11:58:16;6.77;;;3.90;;
17052;SDS011;8643;48.824;11.422;2022-11-20T12:01:03;5.10;;;3.83;;
17052;SDS011;8643;48.824;11.422;2022-11-20T12:03:40;5.23;;;3.60;;
17052;SDS011;8643;48.824;11.422;2022-11-20T12:06:16;5.80;;;4.20;;
17052;SDS011;8643;48.824;11.422;2022-11-20T12:08:46;6.90;;;4.00;;
17052;SDS011;8643;48.824;11.422;2022-11-20T12:11:23;6.13;;;4.27;;
17052;SDS011;8643;48.824;11.422;2022-11-20T12:14:00;8.37;;;4.90;;
17052;SDS011;8643;48.824;11.422;2022-11-20T12:16:40;6.70;;;3.97;;
17052;SDS011;8643;48.824;11.422;2022-11-20T12:19:12;6.10;;;3.77;;
17052;SDS011;8643;48.824;11.422;2022-11-20T12:21:45;5.77;;;4.00;;
17052;SDS011;8643;48.824;11.422;2022-11-20T12:24:42;5.40;;;3.60;;
17052;SDS011;8643;48.824;11.422;2022-11-20T12:30:20;9.37;;;4.23;;
17052;SDS011;8643;48.824;11.422;2022-11-20T12:33:04;7.00;;;3.70;;
17052;SDS011;8643;48.824;11.422;2022-11-20T12:36:01;8.03;;;4.57;;
17052;SDS011;8643;48.824;11.422;2022-11-20T12:38:50;7.60;;;4.83;;
17052;SDS011;8643;48.824;11.422;2022-11-20T12:41:43;4.77;;;3.33;;
17052;SDS011;8643;48.824;11.422;2022-11-20T12:44:59;6.93;;;4.03;;
17052;SDS011;8643;48.824;11.422;2022-11-20T12:47:46;5.47;;;3.50;;
17052;SDS011;8643;48.824;11.422;2022-11-20T12:51:04;5.80;;;3.90;;
17052;SDS011;8643;48.824;11.422;2022-11-20T12:53:51;4.20;;;3.37;;
17052;SDS011;8643;48.824;11.422;2022-11-20T12:56:50;5.40;;;4.07;;
17052;SDS011;8643;48.824;11.422;2022-11-20T12:59:33;3.93;;;2.73;;
17052;SDS011;8643;48.824;11.422;2022-11-20T13:02:25;5.53;;;3.27;;
17052;SDS011;8643;48.824;11.422;2022-11-20T13:05:17;4.00;;;3.00;;
17052;SDS011;8643;48.824;11.422;2022-11-20T13:07:53;4.97;;;3.30;;
17052;SDS011;8643;48.824;11.422;2022-11-20T13:10:24;4.63;;;2.80;;
17052;SDS011;8643;48.824;11.422;2022-11-20T13:13:03;4.40;;;3.20;;
17052;SDS011;8643;48.824;11.422;2022-11-20T13:15:48;4.03;;;3.07;;
17052;SDS011;8643;48.824;11.422;2022-11-20T13:18:26;3.83;;;2.87;;
17052;SDS011;8643;48.824;11.422;2022-11-20T13:20:56;4.10;;;2.73;;
17052;SDS011;8643;48.824;11.422;2022-11-20T13:23:27;7.53;;;3.07;;
17052;SDS011;8643;48.824;11.422;2022-11-20T13:26:04;3.47;;;2.50;;
17052;SDS011;8643;48.824;11.422;2022-11-20T13:28:43;4.03;;;2.70;;
17052;SDS011;8643;48.824;11.422;2022-11-20T13:31:27;3.07;;;2.40;;
17052;SDS011;8643;48.824;11.422;2022-11-20T13:34:00;3.47;;;2.50;;
17052;SDS011;8643;48.824;11.422;2022-11-20T13:36:33;4.60;;;2.60;;
17052;SDS011;8643;48.824;11.422;2022-11-20T13:39:04;4.53;;;3.27;;
17052;SDS011;8643;48.824;11.422;2022-11-20T13:41:33;5.50;;;3.73;;
17052;SDS011;8643;48.824;11.422;2022-11-20T13:44:09;2.60;;;2.20;;
17052;SDS011;8643;48.824;11.422;2022-11-20T13:46:43;3.93;;;2.50;;
17052;SDS011;8643;48.824;11.422;2022-11-20T13:49:17;4.20;;;2.93;;
17052;SDS011;8643;48.824;11.422;2022-11-20T13:51:54;3.83;;;2.93;;
17052;SDS011;8643;48.824;11.422;2022-11-20T13:54:51;4.17;;;2.70;;
17052;SDS011;8643;48.824;11.422;2022-11-20T13:57:40;4.97;;;3.50;;
17052;SDS011;8643;48.824;11.422;2022-11-20T14:00:29;4.40;;;3.20;;
17052;SDS011;8643;48.824;11.422;2022-11-20T14:02:59;3.53;;;2.63;;
17052;SDS011;8643;48.824;11.422;2022-11-20T14:05:50;3.93;;;3.00;;
17052;SDS011;8643;48.824;11.422;2022-11-20T14:08:27;5.03;;;3.50;;
17052;SDS011;8643;48.824;11.422;2022-11-20T14:11:12;4.90;;;3.20;;
17052;SDS011;8643;48.824;11.422;2022-11-20T14:13:54;4.90;;;3.30;;
17052;SDS011;8643;48.824;11.422;2022-11-20T14:16:26;6.67;;;5.40;;
17052;SDS011;8643;48.824;11.422;2022-11-20T14:18:57;4.73;;;3.23;;
17052;SDS011;8643;48.824;11.422;2022-11-20T14:21:53;5.83;;;3.50;;
17052;SDS011;8643;48.824;11.422;2022-11-20T14:24:33;5.33;;;3.63;;
17052;SDS011;8643;48.824;11.422;2022-11-20T14:27:04;6.07;;;4.47;;
17052;SDS011;8643;48.824;11.422;2022-11-20T14:29:38;7.63;;;3.67;;
17052;SDS011;8643;48.824;11.422;2022-11-20T14:32:08;3.87;;;3.33;;
17052;SDS011;8643;48.824;11.422;2022-11-20T14:34:38;5.17;;;4.03;;
17052;SDS011;8643;48.824;11.422;2022-11-20T14:37:11;3.70;;;3.13;;
17052;SDS011;8643;48.824;11.422;2022-11-20T14:39:48;4.47;;;3.00;;
17052;SDS011;8643;48.824;11.422;2022-11-20T14:42:22;4.77;;;3.27;;
17052;SDS011;8643;48.824;11.422;2022-11-20T14:44:54;5.33;;;2.57;;
17052;SDS011;8643;48.824;11.422;2022-11-20T14:47:25;4.03;;;2.67;;
17052;SDS011;8643;48.824;11.422;2022-11-20T14:49:58;8.17;;;4.73;;
17052;SDS011;8643;48.824;11.422;2022-11-20T14:52:35;4.47;;;3.10;;
17052;SDS011;8643;48.824;11.422;2022-11-20T14:55:03;4.57;;;3.37;;
17052;SDS011;8643;48.824;11.422;2022-11-20T14:57:35;4.30;;;2.77;;
17052;SDS011;8643;48.824;11.422;2022-11-20T15:00:05;3.10;;;2.70;;
17052;SDS011;8643;48.824;11.422;2022-11-20T15:02:46;5.07;;;3.50;;
17052;SDS011;8643;48.824;11.422;2022-11-20T15:05:17;4.30;;;3.13;;
17052;SDS011;8643;48.824;11.422;2022-11-20T15:07:48;4.73;;;3.30;;
17052;SDS011;8643;48.824;11.422;2022-11-20T15:10:31;4.23;;;3.27;;
17052;SDS011;8643;48.824;11.422;2022-11-20T15:13:02;5.50;;;3.40;;
17052;SDS011;8643;48.824;11.422;2022-11-20T15:15:40;5.63;;;3.90;;
17052;SDS011;8643;48.824;11.422;2022-11-20T15:18:16;5.60;;;3.63;;